Terminal Aerodrome Forecast
Issued by NWS Paducah, KY

Home | Current Version | Previous Version | Text Only | Print | Product List | Glossary On
Versions: 1 2 3 4 5 6 7 8 9 10 11 12 13 14 15 16
228
FTUS43 KPAH 141133
TAFEVV
TAF
KEVV 141133Z 1412/1512 10007KT P6SM OVC060
     FM141400 12008KT P6SM -SN SCT035 OVC050
     FM141700 14009KT 4SM -SNPL BR SCT025 OVC035
      TEMPO 1418/1422 6SM -FZRAPL BR OVC025
     FM142200 15006KT 6SM -FZRA BR OVC015
     FM150200 17003KT 5SM BR OVC012=

USA.gov is the U.S. government's official web portal to all federal, state and local government web resources and services.